createdAt,value
2018-06-03T00:01:17.020Z,20.33
2018-06-03T00:03:44.572Z,21.60
2018-06-03T00:06:12.122Z,19.80
2018-06-03T00:08:39.707Z,16.97
2018-06-03T00:11:07.255Z,18.57
2018-06-03T00:13:34.826Z,14.77
2018-06-03T00:16:02.408Z,15.37
2018-06-03T00:18:29.956Z,15.73
2018-06-03T00:21:09.304Z,13.47
2018-06-03T00:23:36.858Z,13.70
2018-06-03T00:26:04.440Z,16.43
2018-06-03T00:28:32.043Z,13.83
2018-06-03T00:30:59.593Z,13.63
2018-06-03T00:33:27.149Z,12.50
2018-06-03T00:36:06.404Z,15.90
2018-06-03T00:38:34.720Z,12.30
2018-06-03T00:41:02.277Z,12.83
2018-06-03T00:43:29.855Z,11.93
2018-06-03T00:45:57.408Z,12.30
2018-06-03T00:48:24.962Z,14.27
2018-06-03T00:50:52.559Z,18.97
2018-06-03T00:53:20.386Z,16.47
2018-06-03T00:55:47.940Z,16.13
2018-06-03T00:58:15.527Z,16.30
2018-06-03T01:00:43.076Z,16.83
2018-06-03T01:03:10.633Z,15.80
2018-06-03T01:05:38.401Z,18.20
2018-06-03T01:08:05.960Z,15.83
2018-06-03T01:10:34.473Z,14.87
2018-06-03T01:13:02.061Z,19.47
2018-06-03T01:15:29.607Z,22.17
2018-06-03T01:17:57.981Z,20.17
2018-06-03T01:20:26.242Z,21.17
2018-06-03T01:22:53.795Z,23.57
2018-06-03T01:25:21.523Z,21.37
2018-06-03T01:27:49.107Z,25.70
2018-06-03T01:30:16.715Z,18.77
2018-06-03T01:32:44.281Z,19.07
2018-06-03T01:35:12.137Z,18.73
2018-06-03T01:37:39.692Z,20.13
2018-06-03T01:40:07.325Z,20.00
2018-06-03T01:42:35.052Z,20.87
2018-06-03T01:45:03.433Z,21.03
2018-06-03T01:47:30.991Z,19.87
2018-06-03T01:49:58.688Z,23.83
2018-06-03T01:52:26.276Z,21.30
2018-06-03T01:54:54.181Z,21.23
2018-06-03T01:57:21.766Z,22.80
2018-06-03T01:59:49.552Z,20.40
2018-06-03T02:02:17.995Z,20.27
2018-06-03T02:04:45.595Z,17.67
2018-06-03T02:07:13.153Z,17.07
2018-06-03T02:09:40.704Z,17.93
2018-06-03T02:12:08.298Z,19.23
2018-06-03T02:14:36.096Z,15.33
2018-06-03T02:17:03.725Z,16.83
2018-06-03T02:19:31.452Z,21.67
2018-06-03T02:21:59.771Z,16.93
2018-06-03T02:24:27.391Z,15.10
2018-06-03T02:26:55.745Z,15.17
2018-06-03T02:29:23.445Z,15.80
2018-06-03T02:31:50.995Z,16.83
2018-06-03T02:34:19.008Z,19.97
2018-06-03T02:36:46.692Z,17.13
2018-06-03T02:39:14.532Z,15.63
2018-06-03T02:41:42.408Z,18.80
2018-06-03T02:44:09.997Z,16.50
2018-06-03T02:46:37.668Z,22.27
2018-06-03T02:49:05.569Z,18.33
2018-06-03T02:51:33.331Z,16.47
2018-06-03T02:54:01.084Z,16.80
2018-06-03T02:56:29.008Z,20.30
2018-06-03T02:58:56.609Z,17.90
2018-06-03T03:01:24.452Z,17.60
2018-06-03T03:03:52.419Z,17.77
2018-06-03T03:06:20.015Z,15.43
2018-06-03T03:08:47.698Z,15.83
2018-06-03T03:11:15.531Z,14.13
2018-06-03T03:13:44.159Z,15.13
2018-06-03T03:16:11.888Z,14.93
2018-06-03T03:18:39.807Z,15.10
2018-06-03T03:21:08.124Z,15.10
2018-06-03T03:23:35.687Z,16.07
2018-06-03T03:26:03.562Z,14.50
2018-06-03T03:28:31.147Z,15.73
2018-06-03T03:30:58.699Z,14.33
2018-06-03T03:33:26.549Z,14.13
2018-06-03T03:35:54.379Z,14.77
2018-06-03T03:38:22.296Z,16.63
2018-06-03T03:40:50.176Z,17.23
2018-06-03T03:43:17.723Z,17.53
2018-06-03T03:45:45.277Z,17.00
2018-06-03T03:48:12.889Z,15.97
2018-06-03T03:50:40.491Z,16.17
2018-06-03T03:53:08.110Z,17.47
2018-06-03T03:55:35.779Z,20.93
2018-06-03T03:58:03.620Z,18.20
2018-06-03T04:00:31.936Z,19.57
2018-06-03T04:02:59.762Z,19.57
2018-06-03T04:05:28.108Z,16.33
2018-06-03T04:07:56.046Z,16.67
2018-06-03T04:10:23.687Z,16.97
2018-06-03T04:12:51.569Z,15.43
2018-06-03T04:15:19.296Z,14.57
2018-06-03T04:17:47.656Z,16.80
2018-06-03T04:20:49.924Z,15.20
2018-06-03T04:23:19.297Z,16.17
2018-06-03T04:25:48.616Z,16.07
2018-06-03T04:28:18.528Z,19.10
2018-06-03T04:30:47.920Z,17.97
2018-06-03T04:33:17.379Z,13.77
2018-06-03T04:35:46.915Z,16.10
2018-06-03T04:38:16.210Z,15.03
2018-06-03T04:40:45.854Z,17.07
2018-06-03T04:43:15.050Z,18.23
2018-06-03T04:45:44.375Z,18.23
2018-06-03T04:48:13.476Z,20.07
2018-06-03T04:50:43.177Z,17.07
2018-06-03T04:53:12.492Z,18.63
2018-06-03T04:55:42.063Z,16.33
2018-06-03T04:58:11.788Z,16.80
2018-06-03T05:00:41.490Z,15.50
2018-06-03T05:03:11.177Z,17.33
2018-06-03T05:05:40.995Z,16.30
2018-06-03T05:08:10.757Z,16.67
2018-06-03T05:10:40.299Z,17.43
2018-06-03T05:13:09.565Z,18.60
2018-06-03T05:15:39.257Z,18.70
2018-06-03T05:18:08.811Z,15.70
2018-06-03T05:20:38.148Z,9.80
2018-06-03T05:23:07.352Z,9.03
2018-06-03T05:25:36.916Z,10.37
2018-06-03T05:28:06.372Z,11.33
2018-06-03T05:30:35.960Z,11.47
2018-06-03T05:33:05.252Z,11.00
2018-06-03T05:35:34.387Z,10.30
2018-06-03T05:38:03.621Z,12.50
2018-06-03T05:40:32.907Z,10.87
2018-06-03T05:43:02.400Z,12.13
2018-06-03T05:45:31.960Z,14.60
2018-06-03T05:48:00.773Z,14.73
2018-06-03T05:50:30.203Z,15.17
2018-06-03T05:52:59.423Z,11.17
2018-06-03T05:55:28.964Z,13.80
2018-06-03T05:57:58.339Z,16.83
2018-06-03T06:00:27.993Z,15.90
2018-06-03T06:02:57.140Z,14.30
2018-06-03T06:05:26.467Z,12.30
2018-06-03T06:07:56.222Z,17.57
2018-06-03T06:10:25.584Z,11.87
2018-06-03T06:12:54.816Z,13.53
2018-06-03T06:15:24.467Z,15.50
2018-06-03T06:17:53.548Z,11.33
2018-06-03T06:20:22.992Z,10.03
2018-06-03T06:22:52.559Z,10.33
2018-06-03T06:25:22.181Z,10.63
2018-06-03T06:27:51.523Z,11.90
2018-06-03T06:30:20.741Z,18.50
2018-06-03T06:32:50.235Z,16.07
2018-06-03T06:35:19.453Z,12.73
2018-06-03T06:37:49.114Z,12.00
2018-06-03T06:40:18.468Z,13.43
2018-06-03T06:42:48.037Z,12.23
2018-06-03T06:45:17.470Z,8.73
2018-06-03T06:47:47.165Z,9.20
2018-06-03T06:50:16.506Z,12.30
2018-06-03T06:52:45.998Z,6.00
2018-06-03T06:55:15.252Z,5.23
2018-06-03T06:57:44.608Z,5.70
2018-06-03T07:00:14.082Z,5.07
2018-06-03T07:02:43.625Z,6.60
2018-06-03T07:05:13.378Z,6.00
2018-06-03T07:07:42.946Z,5.97
2018-06-03T07:10:13.494Z,8.17
2018-06-03T07:12:43.409Z,5.53
2018-06-03T07:15:12.931Z,5.80
2018-06-03T07:17:42.376Z,6.87
2018-06-03T07:20:11.997Z,6.73
2018-06-03T07:22:41.520Z,6.27
2018-06-03T07:25:11.372Z,7.57
2018-06-03T07:27:41.770Z,7.17
2018-06-03T07:30:11.404Z,7.60
2018-06-03T07:32:41.025Z,10.23
2018-06-03T07:35:10.598Z,5.80
2018-06-03T07:37:40.336Z,8.43
2018-06-03T07:40:09.789Z,8.30
2018-06-03T07:42:39.507Z,25.60
2018-06-03T07:45:09.289Z,10.50
2018-06-03T07:47:39.003Z,13.20
2018-06-03T07:50:08.461Z,5.90
2018-06-03T07:52:39.063Z,5.40
2018-06-03T07:55:08.249Z,4.90
2018-06-03T07:57:37.743Z,5.00
2018-06-03T08:00:07.133Z,3.80
2018-06-03T08:02:36.574Z,4.37
2018-06-03T08:05:06.050Z,5.70
2018-06-03T08:07:35.512Z,9.57
2018-06-03T08:10:04.725Z,16.73
2018-06-03T08:12:34.228Z,7.10
2018-06-03T08:15:03.658Z,7.27
2018-06-03T08:17:33.486Z,7.10
2018-06-03T08:20:02.865Z,8.47
2018-06-03T08:22:32.331Z,6.13
2018-06-03T08:25:01.935Z,5.43
2018-06-03T08:27:31.624Z,5.50
2018-06-03T08:30:01.606Z,8.47
2018-06-03T08:32:31.894Z,5.87
2018-06-03T08:35:01.383Z,5.47
2018-06-03T08:37:30.428Z,14.73
2018-06-03T08:39:59.934Z,7.10
2018-06-03T08:42:29.329Z,8.77
2018-06-03T08:44:58.515Z,12.70
2018-06-03T08:47:27.851Z,10.20
2018-06-03T08:49:57.333Z,6.23
2018-06-03T08:52:26.688Z,25.97
2018-06-03T08:54:55.681Z,9.03
2018-06-03T08:57:25.276Z,17.07
2018-06-03T08:59:54.571Z,20.33
2018-06-03T09:02:23.806Z,11.00
2018-06-03T09:04:53.349Z,8.67
2018-06-03T09:07:23.071Z,15.30
2018-06-03T09:09:52.583Z,7.33
2018-06-03T09:12:22.041Z,5.60
2018-06-03T09:14:51.404Z,7.47
2018-06-03T09:17:21.591Z,29.67
2018-06-03T09:19:51.275Z,6.10
2018-06-03T09:22:20.667Z,3.47
2018-06-03T09:24:50.092Z,4.30
2018-06-03T09:27:19.400Z,4.40
2018-06-03T09:29:48.693Z,3.67
2018-06-03T09:32:18.593Z,4.00
2018-06-03T09:34:47.881Z,4.87
2018-06-03T09:37:17.355Z,4.80
2018-06-03T09:39:47.017Z,3.30
2018-06-03T09:42:16.564Z,2.90
2018-06-03T09:44:45.929Z,3.10
2018-06-03T09:47:15.765Z,3.03
2018-06-03T09:49:44.907Z,2.90
2018-06-03T09:52:14.413Z,3.07
2018-06-03T09:54:44.009Z,2.53
2018-06-03T09:57:13.240Z,2.50
2018-06-03T09:59:42.704Z,3.50
2018-06-03T10:02:12.309Z,2.77
2018-06-03T10:04:41.564Z,2.87
2018-06-03T10:07:11.121Z,2.63
2018-06-03T10:09:40.572Z,2.97
2018-06-03T10:12:09.973Z,2.27
2018-06-03T10:14:39.635Z,2.83
2018-06-03T10:17:08.962Z,3.40
2018-06-03T10:19:38.362Z,3.60
2018-06-03T10:22:07.708Z,5.83
2018-06-03T10:24:36.429Z,3.47
2018-06-03T10:27:06.189Z,4.37
2018-06-03T10:29:35.677Z,3.80
2018-06-03T10:32:04.767Z,3.00
2018-06-03T10:34:34.096Z,2.97
2018-06-03T10:37:03.952Z,3.67
2018-06-03T10:39:33.301Z,3.67
2018-06-03T10:42:02.824Z,3.80
2018-06-03T10:44:32.273Z,2.87
2018-06-03T10:47:01.578Z,2.80
2018-06-03T10:49:30.814Z,3.20
2018-06-03T10:52:00.161Z,2.58
2018-06-03T10:54:29.505Z,3.10
2018-06-03T10:56:58.745Z,2.75
2018-06-03T10:59:28.182Z,2.17
2018-06-03T11:01:57.999Z,2.05
2018-06-03T11:04:27.484Z,2.70
2018-06-03T11:06:56.752Z,2.67
2018-06-03T11:09:25.935Z,2.62
2018-06-03T11:11:55.307Z,2.50
2018-06-03T11:14:24.692Z,2.50
2018-06-03T11:16:54.286Z,2.75
2018-06-03T11:19:23.558Z,2.87
2018-06-03T11:21:53.281Z,2.20
2018-06-03T11:24:23.091Z,2.37
2018-06-03T11:26:52.844Z,3.92
2018-06-03T11:29:22.234Z,2.60
2018-06-03T11:31:51.544Z,2.20
2018-06-03T11:34:20.793Z,2.58
2018-06-03T11:36:50.267Z,4.25
2018-06-03T11:39:19.526Z,3.62
2018-06-03T11:41:48.716Z,4.53
2018-06-03T11:44:18.108Z,3.85
2018-06-03T11:46:47.311Z,4.33
2018-06-03T11:49:16.592Z,4.10
2018-06-03T11:51:45.807Z,3.90
2018-06-03T11:54:15.043Z,3.98
2018-06-03T11:56:55.076Z,4.33
2018-06-03T11:59:45.541Z,3.70
2018-06-03T12:02:18.121Z,6.35
2018-06-03T12:04:47.335Z,4.87
2018-06-03T12:07:16.696Z,9.75
2018-06-03T12:09:46.246Z,11.25
2018-06-03T12:12:16.111Z,10.50
2018-06-03T12:14:45.580Z,13.28
2018-06-03T12:17:15.077Z,11.35
2018-06-03T12:19:44.252Z,12.33
2018-06-03T12:22:13.754Z,11.20
2018-06-03T12:24:43.190Z,11.55
2018-06-03T12:27:12.582Z,10.55
2018-06-03T12:29:42.130Z,9.53
2018-06-03T12:32:11.366Z,14.63
2018-06-03T12:34:40.792Z,8.45
2018-06-03T12:37:09.944Z,12.25
2018-06-03T12:39:40.579Z,12.13
2018-06-03T12:42:10.445Z,8.35
2018-06-03T12:44:39.761Z,8.10
2018-06-03T12:47:08.897Z,7.53
2018-06-03T12:49:38.241Z,7.72
2018-06-03T12:52:07.615Z,8.25
2018-06-03T12:54:37.166Z,8.50
2018-06-03T12:57:06.440Z,6.70
2018-06-03T12:59:35.632Z,8.53
2018-06-03T13:02:05.155Z,7.87
2018-06-03T13:04:34.788Z,6.60
2018-06-03T13:07:04.338Z,10.15
2018-06-03T13:09:33.820Z,9.05
2018-06-03T13:12:04.843Z,7.62
2018-06-03T13:14:34.488Z,6.72
2018-06-03T13:17:03.716Z,6.45
2018-06-03T13:19:32.980Z,12.18
2018-06-03T13:22:02.499Z,8.80
2018-06-03T13:24:31.639Z,6.62
2018-06-03T13:27:01.077Z,5.55
2018-06-03T13:29:30.449Z,7.70
2018-06-03T13:31:59.765Z,6.92
2018-06-03T13:34:29.208Z,5.97
2018-06-03T13:36:58.381Z,7.55
2018-06-03T13:39:27.808Z,4.87
2018-06-03T13:41:57.309Z,4.92
2018-06-03T13:44:26.575Z,7.17
2018-06-03T13:46:55.915Z,6.53
2018-06-03T13:49:25.274Z,7.08
2018-06-03T13:51:54.708Z,5.75
2018-06-03T13:54:24.022Z,6.15
2018-06-03T13:56:53.113Z,5.80
2018-06-03T13:59:22.418Z,6.08
2018-06-03T14:01:51.594Z,6.33
2018-06-03T14:04:21.034Z,6.45
2018-06-03T14:06:50.758Z,9.48
2018-06-03T14:09:20.157Z,7.87
2018-06-03T14:11:49.373Z,7.95
2018-06-03T14:14:18.804Z,9.10
2018-06-03T14:16:48.342Z,9.53
2018-06-03T14:19:18.083Z,10.18
2018-06-03T14:21:47.288Z,9.40
2018-06-03T14:24:16.482Z,10.35
2018-06-03T14:26:45.952Z,11.73
2018-06-03T14:29:15.264Z,12.10
2018-06-03T14:31:44.542Z,10.20
2018-06-03T14:34:14.297Z,9.18
2018-06-03T14:36:43.615Z,9.10
2018-06-03T14:39:12.867Z,8.40
2018-06-03T14:41:42.312Z,9.53
2018-06-03T14:44:11.726Z,12.03
2018-06-03T14:46:41.363Z,12.00
2018-06-03T14:49:10.749Z,11.55
2018-06-03T14:51:40.046Z,10.95
2018-06-03T14:54:09.396Z,10.68
2018-06-03T14:56:38.870Z,10.08
2018-06-03T14:59:07.981Z,10.70
2018-06-03T15:01:37.143Z,9.55
2018-06-03T15:04:06.595Z,11.15
2018-06-03T15:06:35.717Z,10.60
2018-06-03T15:09:06.850Z,10.38
2018-06-03T15:11:36.222Z,11.03
2018-06-03T15:14:05.594Z,9.78
2018-06-03T15:16:35.083Z,9.23
2018-06-03T15:19:04.470Z,9.70
2018-06-03T15:21:33.652Z,9.03
2018-06-03T15:24:03.231Z,9.23
2018-06-03T15:26:32.743Z,9.55
2018-06-03T15:29:01.990Z,9.63
2018-06-03T15:31:31.429Z,9.48
2018-06-03T15:34:00.637Z,9.83
2018-06-03T15:36:29.878Z,8.88
2018-06-03T15:38:59.127Z,9.48
2018-06-03T15:41:28.463Z,10.13
2018-06-03T15:43:57.541Z,9.93
2018-06-03T15:46:27.160Z,9.43
2018-06-03T15:48:56.772Z,9.63
2018-06-03T15:51:26.172Z,9.43
2018-06-03T15:53:56.010Z,9.23
2018-06-03T15:56:25.696Z,9.05
2018-06-03T15:58:55.159Z,9.80
2018-06-03T16:01:24.504Z,8.40
2018-06-03T16:03:53.934Z,8.93
2018-06-03T16:06:23.506Z,9.63
2018-06-03T16:08:52.814Z,9.25
2018-06-03T16:11:21.970Z,9.78
2018-06-03T16:13:51.276Z,8.95
2018-06-03T16:16:20.936Z,9.03
2018-06-03T16:18:50.073Z,9.30
2018-06-03T16:21:19.631Z,9.23
2018-06-03T16:23:49.232Z,10.55
2018-06-03T16:26:18.720Z,9.15
2018-06-03T16:28:47.965Z,8.70
2018-06-03T16:31:17.217Z,8.68
2018-06-03T16:33:46.619Z,8.88
2018-06-03T16:36:15.781Z,9.35
2018-06-03T16:38:45.233Z,9.13
2018-06-03T16:41:14.254Z,9.55
2018-06-03T16:43:43.397Z,9.33
2018-06-03T16:46:12.665Z,9.93
2018-06-03T16:48:42.090Z,10.72
2018-06-03T16:51:11.529Z,11.20
2018-06-03T16:53:40.733Z,10.13
2018-06-03T16:56:10.098Z,10.63
2018-06-03T16:58:39.642Z,11.38
2018-06-03T17:01:08.653Z,11.95
2018-06-03T17:03:37.880Z,12.33
2018-06-03T17:06:07.574Z,10.98
2018-06-03T17:08:36.888Z,10.75
2018-06-03T17:11:06.327Z,11.33
2018-06-03T17:13:35.658Z,11.43
2018-06-03T17:16:04.859Z,11.95
2018-06-03T17:18:34.073Z,14.90
2018-06-03T17:21:03.313Z,12.20
2018-06-03T17:23:33.016Z,12.60
2018-06-03T17:26:02.262Z,12.43
2018-06-03T17:28:31.675Z,13.83
2018-06-03T17:31:00.976Z,13.40
2018-06-03T17:33:30.371Z,12.83
2018-06-03T17:35:59.079Z,13.27
2018-06-03T17:38:28.516Z,26.53
2018-06-03T17:40:57.917Z,28.83
2018-06-03T17:43:27.174Z,33.13
2018-06-03T17:45:56.674Z,28.37
2018-06-03T17:48:26.590Z,19.10
2018-06-03T17:50:56.000Z,14.80
2018-06-03T17:53:25.398Z,14.17
2018-06-03T17:55:54.729Z,14.63
2018-06-03T17:58:23.876Z,14.00
2018-06-03T18:00:53.286Z,15.60
2018-06-03T18:03:22.612Z,14.80
2018-06-03T18:05:52.085Z,15.60
2018-06-03T18:08:21.429Z,15.23
2018-06-03T18:10:50.590Z,14.57
2018-06-03T18:13:20.073Z,14.73
2018-06-03T18:15:49.292Z,15.63
2018-06-03T18:18:18.833Z,18.43
2018-06-03T18:20:48.275Z,16.70
2018-06-03T18:23:17.411Z,17.20
2018-06-03T18:25:46.831Z,19.20
2018-06-03T18:28:15.951Z,20.73
2018-06-03T18:30:45.079Z,22.17
2018-06-03T18:33:14.586Z,20.60
2018-06-03T18:35:44.121Z,20.00
2018-06-03T18:38:13.531Z,18.97
2018-06-03T18:40:42.768Z,18.70
2018-06-03T18:43:12.188Z,18.40
2018-06-03T18:45:41.865Z,18.77
2018-06-03T18:48:11.094Z,17.57
2018-06-03T18:50:40.828Z,17.70
2018-06-03T18:53:09.972Z,17.53
2018-06-03T18:55:39.217Z,18.77
2018-06-03T18:58:08.538Z,19.73
2018-06-03T19:00:37.931Z,18.03
2018-06-03T19:03:07.109Z,21.30
2018-06-03T19:05:36.539Z,21.93
2018-06-03T19:08:05.738Z,22.93
2018-06-03T19:10:34.910Z,20.37
2018-06-03T19:13:04.089Z,19.63
2018-06-03T19:15:33.424Z,18.60
2018-06-03T19:18:02.778Z,20.40
2018-06-03T19:20:32.089Z,20.53
2018-06-03T19:23:01.525Z,20.47
2018-06-03T19:25:30.699Z,20.63
2018-06-03T19:28:01.081Z,23.20
2018-06-03T19:30:30.413Z,20.73
2018-06-03T19:32:59.787Z,18.60
2018-06-03T19:35:29.413Z,18.60
2018-06-03T19:37:58.916Z,20.70
2018-06-03T19:40:28.275Z,20.63
2018-06-03T19:42:58.035Z,20.20
2018-06-03T19:45:27.559Z,24.30
2018-06-03T19:47:56.886Z,25.53
2018-06-03T19:50:27.655Z,22.80
2018-06-03T19:52:56.821Z,22.77
2018-06-03T19:55:26.273Z,23.10
2018-06-03T19:57:55.661Z,23.57
2018-06-03T20:00:25.320Z,23.13
2018-06-03T20:02:55.296Z,27.33
2018-06-03T20:05:24.722Z,23.57
2018-06-03T20:07:54.473Z,20.37
2018-06-03T20:10:23.948Z,20.53
2018-06-03T20:12:53.472Z,20.87
2018-06-03T20:15:22.529Z,21.47
2018-06-03T20:17:53.920Z,22.07
2018-06-03T20:20:23.706Z,20.77
2018-06-03T20:22:53.144Z,22.53
2018-06-03T20:25:22.406Z,21.63
2018-06-03T20:27:51.745Z,21.20
2018-06-03T20:30:21.315Z,20.97
2018-06-03T20:32:50.720Z,21.83
2018-06-03T20:35:20.131Z,19.73
2018-06-03T20:37:49.327Z,24.10
2018-06-03T20:40:18.528Z,25.30
2018-06-03T20:42:47.945Z,23.73
2018-06-03T20:45:17.457Z,24.00
2018-06-03T20:47:47.030Z,23.33
2018-06-03T20:50:16.881Z,21.67
2018-06-03T20:52:47.359Z,34.73
2018-06-03T20:55:16.665Z,23.23
2018-06-03T20:57:45.693Z,21.80
2018-06-03T21:00:14.423Z,21.80
2018-06-03T21:02:43.704Z,22.30
2018-06-03T21:05:12.858Z,26.93
2018-06-03T21:07:42.187Z,24.13
2018-06-03T21:10:11.293Z,20.23
2018-06-03T21:12:40.503Z,21.23
2018-06-03T21:15:09.739Z,21.03
2018-06-03T21:17:39.187Z,23.63
2018-06-03T21:20:08.656Z,25.37
2018-06-03T21:22:37.859Z,20.77
2018-06-03T21:25:07.088Z,21.23
2018-06-03T21:27:36.489Z,20.57
2018-06-03T21:30:05.946Z,21.57
2018-06-03T21:32:35.361Z,24.03
2018-06-03T21:35:04.620Z,22.23
2018-06-03T21:37:34.178Z,21.33
2018-06-03T21:40:03.269Z,22.33
2018-06-03T21:42:32.492Z,22.53
2018-06-03T21:45:01.733Z,22.93
2018-06-03T21:47:31.092Z,20.97
2018-06-03T21:50:00.211Z,27.87
2018-06-03T21:52:29.524Z,40.00
2018-06-03T21:54:58.792Z,29.07
2018-06-03T21:57:28.084Z,33.90
2018-06-03T21:59:57.436Z,37.50
2018-06-03T22:02:26.550Z,30.20
2018-06-03T22:04:55.786Z,30.13
2018-06-03T22:07:25.128Z,31.60
2018-06-03T22:09:54.574Z,35.33
2018-06-03T22:12:23.872Z,31.83
2018-06-03T22:14:53.075Z,31.97
2018-06-03T22:17:22.268Z,28.87
2018-06-03T22:19:51.436Z,27.00
2018-06-03T22:22:20.700Z,25.60
2018-06-03T22:24:49.820Z,23.10
2018-06-03T22:27:19.068Z,22.80
2018-06-03T22:29:48.256Z,21.17
2018-06-03T22:32:17.670Z,19.27
2018-06-03T22:34:47.395Z,26.30
2018-06-03T22:37:16.588Z,22.40
2018-06-03T22:39:45.971Z,22.93
2018-06-03T22:42:15.123Z,27.13
2018-06-03T22:44:44.395Z,21.63
2018-06-03T22:47:13.527Z,23.40
2018-06-03T22:49:42.767Z,20.67
2018-06-03T22:52:12.150Z,23.63
2018-06-03T22:54:41.356Z,18.10
2018-06-03T22:57:50.103Z,20.43
2018-06-03T23:00:26.812Z,22.17
2018-06-03T23:03:01.337Z,20.37
2018-06-03T23:05:30.581Z,23.23
2018-06-03T23:07:59.730Z,20.90
2018-06-03T23:10:29.012Z,19.47
2018-06-03T23:12:58.165Z,18.63
2018-06-03T23:15:27.360Z,28.73
2018-06-03T23:17:56.610Z,24.97
2018-06-03T23:20:25.940Z,21.30
2018-06-03T23:22:55.013Z,20.67
2018-06-03T23:25:24.372Z,23.70
2018-06-03T23:27:53.640Z,18.60
2018-06-03T23:30:22.818Z,18.77
2018-06-03T23:32:52.103Z,20.23
2018-06-03T23:35:21.503Z,18.10
2018-06-03T23:37:50.831Z,19.47
2018-06-03T23:40:20.173Z,19.20
2018-06-03T23:42:49.302Z,20.17
2018-06-03T23:45:18.528Z,22.40
2018-06-03T23:47:47.742Z,23.27
2018-06-03T23:50:17.127Z,21.93
2018-06-03T23:52:46.296Z,20.80
2018-06-03T23:55:15.553Z,19.93
2018-06-03T23:57:44.683Z,21.53
